Time;durP1;ratioP1;P1;durP2;ratioP2;P2;SDS_P1;SDS_P2;PMS_P1;PMS_P2;Temp;Humidity;BMP_temperature;BMP_pressure;BME280_temperature;BME280_humidity;BME280_pressure;Samples;Min_cycle;Max_cycle;Signal;HPM_P1;HPM_P2
2022/01/16 00:00:18;;;;;;;;;;;;;;;;;;1035195;28;1086;-36
2022/01/16 00:01:03;;;;;;;;;;;;;;;;;;1031307;28;951;-36
2022/01/16 00:04:18;;;;;;;;;;;;;;;;;;1031328;28;882;-35
2022/01/16 00:04:48;;;;;;;;;;;;;;;;;;1030961;28;969;-36
2022/01/16 00:05:18;;;;;;;;;;;;;;;;;;1031587;28;884;-35
2022/01/16 00:05:49;;;;;;;;;;;;;;;;;;1030998;28;807;-37
2022/01/16 00:06:19;;;;;;;;;;;;;;;;;;1031476;28;874;-37
2022/01/16 00:06:49;;;;;;;;;;;;;;;;;;1031336;28;827;-37
2022/01/16 00:07:20;;;;;;;;;;;;;;;;;;1031376;28;926;-37
2022/01/16 00:07:50;;;;;;;;;;;;;;;;;;1030748;28;859;-37
2022/01/16 00:08:21;;;;;;;;;;;;;;;;;;1031317;28;831;-35
2022/01/16 00:08:51;;;;;;;;;;;;;;;;;;1031344;28;835;-35
2022/01/16 00:09:22;;;;;;;;;;;;;;;;;;1030632;28;1122;-36
2022/01/16 00:09:52;;;;;;;;;;;;;;;;;;1031149;28;895;-36
2022/01/16 00:10:24;;;;;;;;;;;;;;;;;;1031304;28;1422;-35
2022/01/16 00:10:55;;;;;;;;;;;;;;;;;;1031314;28;902;-35
2022/01/16 00:11:27;;;;;;;;;;;;;;;;;;1031275;28;867;-35
2022/01/16 00:12:00;;;;;;;;;;;;;;;;;;1030956;28;1234;-35
2022/01/16 00:12:30;;;;;;;;;;;;;;;;;;1032151;28;870;-36
2022/01/16 00:13:01;;;;;;;;;;;;;;;;;;1032281;28;930;-35
2022/01/16 00:13:31;;;;;;;;;;;;;;;;;;1032229;28;1919;-36
2022/01/16 00:14:02;;;;;;;;;;;;;;;;;;1031182;28;783;-35
2022/01/16 00:14:33;;;;;;;;;;;;;;;;;;1031396;28;1009;-34
2022/01/16 00:15:04;;;;;;;;;;;;;;;;;;1030770;28;883;-35
2022/01/16 00:15:34;;;;;;;;;;;;;;;;;;1031357;28;947;-36
2022/01/16 00:16:05;;;;;;;;;;;;;;;;;;1031254;28;938;-36
2022/01/16 00:16:35;;;;;;;;;;;;;;;;;;1031220;28;890;-35
2022/01/16 00:17:06;;;;;;;;;;;;;;;;;;1031201;28;887;-36
2022/01/16 00:17:48;;;;;;;;;;;;;;;;;;1031299;28;858;-35
2022/01/16 00:18:39;;;;;;;;;;;;;;;;;;1031514;28;969;-35
2022/01/16 00:19:12;;;;;;;;;;;;;;;;;;1034088;28;988;-34
2022/01/16 00:19:44;;;;;;;;;;;;;;;;;;1034710;28;883;-35
2022/01/16 00:20:15;;;;;;;;;;;;;;;;;;1035036;28;930;-35
2022/01/16 00:20:46;;;;;;;;;;;;;;;;;;1035063;28;973;-36
2022/01/16 00:21:18;;;;;;;;;;;;;;;;;;1034952;28;1078;-35
2022/01/16 00:21:48;;;;;;;;;;;;;;;;;;1034938;28;961;-35
2022/01/16 00:22:24;;;;;;;;;;;;;;;;;;1035013;28;1579;-36
2022/01/16 00:22:56;;;;;;;;;;;;;;;;;;1034620;28;838;-35
2022/01/16 00:23:32;;;;;;;;;;;;;;;;;;1035098;28;858;-35
2022/01/16 00:24:04;;;;;;;;;;;;;;;;;;1034860;28;859;-34
2022/01/16 00:24:35;;;;;;;;;;;;;;;;;;1034981;28;950;-35
2022/01/16 00:25:06;;;;;;;;;;;;;;;;;;1034720;28;902;-37
2022/01/16 00:25:37;;;;;;;;;;;;;;;;;;1035709;28;1225;-38
2022/01/16 00:26:08;;;;;;;;;;;;;;;;;;1035637;28;1082;-37
2022/01/16 00:26:41;;;;;;;;;;;;;;;;;;1034454;28;819;-35
2022/01/16 00:27:12;;;;;;;;;;;;;;;;;;1033612;28;838;-35
2022/01/16 00:27:43;;;;;;;;;;;;;;;;;;1034766;28;957;-35
2022/01/16 00:28:14;;;;;;;;;;;;;;;;;;1034542;28;1237;-38
2022/01/16 00:28:45;;;;;;;;;;;;;;;;;;1034876;28;1360;-39
2022/01/16 00:29:16;;;;;;;;;;;;;;;;;;1033750;28;1471;-39
2022/01/16 00:29:47;;;;;;;;;;;;;;;;;;1036591;28;1103;-36
2022/01/16 00:30:17;;;;;;;;;;;;;;;;;;1034443;28;1158;-40
2022/01/16 00:30:49;;;;;;;;;;;;;;;;;;1034773;28;1276;-41
2022/01/16 00:31:20;;;;;;;;;;;;;;;;;;1033916;28;1190;-39
2022/01/16 00:31:50;;;;;;;;;;;;;;;;;;1038319;28;1467;-39
2022/01/16 00:32:21;;;;;;;;;;;;;;;;;;1036129;28;910;-38
2022/01/16 00:32:51;;;;;;;;;;;;;;;;;;1035843;28;1111;-39
2022/01/16 00:33:21;;;;;;;;;;;;;;;;;;1030932;28;1976;-40
2022/01/16 00:33:52;;;;;;;;;;;;;;;;;;1034657;28;1111;-41
2022/01/16 00:34:22;;;;;;;;;;;;;;;;;;1033337;28;869;-42
2022/01/16 00:34:52;;;;;;;;;;;;;;;;;;1032176;28;953;-40
2022/01/16 00:35:22;;;;;;;;;;;;;;;;;;1029583;28;783;-39
2022/01/16 00:35:53;;;;;;;;;;;;;;;;;;1028027;28;907;-39
2022/01/16 00:36:24;;;;;;;;;;;;;;;;;;1028548;28;883;-39
2022/01/16 00:36:54;;;;;;;;;;;;;;;;;;1030478;28;914;-41
2022/01/16 00:37:25;;;;;;;;;;;;;;;;;;1029630;28;981;-40
2022/01/16 00:37:55;;;;;;;;;;;;;;;;;;1027906;28;1076;-40
2022/01/16 00:38:25;;;;;;;;;;;;;;;;;;1028164;28;1106;-40
2022/01/16 00:38:57;;;;;;;;;;;;;;;;;;1028026;28;965;-39
2022/01/16 00:39:28;;;;;;;;;;;;;;;;;;1028069;28;527;-37
2022/01/16 00:39:59;;;;;;;;;;;;;;;;;;1027985;28;930;-40
2022/01/16 00:40:29;;;;;;;;;;;;;;;;;;1031486;28;906;-41
2022/01/16 00:41:00;;;;;;;;;;;;;;;;;;1032157;28;1013;-41
2022/01/16 00:41:31;;;;;;;;;;;;;;;;;;1031948;28;827;-38
2022/01/16 00:42:01;;;;;;;;;;;;;;;;;;1031841;28;870;-40
2022/01/16 00:42:31;;;;;;;;;;;;;;;;;;1032092;28;942;-40
2022/01/16 00:43:03;;;;;;;;;;;;;;;;;;1031901;28;998;-38
2022/01/16 00:43:33;;;;;;;;;;;;;;;;;;1032073;28;937;-41
2022/01/16 00:44:04;;;;;;;;;;;;;;;;;;1031900;28;1119;-40
2022/01/16 00:44:35;;;;;;;;;;;;;;;;;;1034615;28;1321;-41
2022/01/16 00:45:05;;;;;;;;;;;;;;;;;;1034575;28;1191;-40
2022/01/16 00:45:35;;;;;;;;;;;;;;;;;;1033407;28;1151;-41
2022/01/16 00:46:06;;;;;;;;;;;;;;;;;;1034789;28;1186;-41
2022/01/16 00:46:36;;;;;;;;;;;;;;;;;;1033825;28;1198;-41
2022/01/16 00:47:07;;;;;;;;;;;;;;;;;;1032816;28;1028;-41
2022/01/16 00:47:37;;;;;;;;;;;;;;;;;;1033624;28;1091;-39
2022/01/16 00:48:07;;;;;;;;;;;;;;;;;;1034483;28;1253;-41
2022/01/16 00:48:38;;;;;;;;;;;;;;;;;;1033909;28;1091;-41
2022/01/16 00:49:08;;;;;;;;;;;;;;;;;;1034636;28;1257;-41
2022/01/16 00:49:41;;;;;;;;;;;;;;;;;;1034203;28;1193;-41
2022/01/16 00:50:11;;;;;;;;;;;;;;;;;;1033255;28;1175;-42
2022/01/16 00:50:41;;;;;;;;;;;;;;;;;;1033384;28;1213;-41
2022/01/16 00:51:12;;;;;;;;;;;;;;;;;;1034495;28;1232;-41
2022/01/16 00:51:42;;;;;;;;;;;;;;;;;;1034642;28;1155;-41
2022/01/16 00:52:13;;;;;;;;;;;;;;;;;;1033490;28;1134;-41
2022/01/16 00:52:43;;;;;;;;;;;;;;;;;;1033300;28;1087;-39
2022/01/16 00:53:14;;;;;;;;;;;;;;;;;;1034257;28;1911;-42
2022/01/16 00:53:44;;;;;;;;;;;;;;;;;;1034545;28;1155;-41
2022/01/16 00:54:14;;;;;;;;;;;;;;;;;;1033798;28;1104;-41
2022/01/16 00:54:45;;;;;;;;;;;;;;;;;;1033220;28;1139;-41
2022/01/16 00:55:15;;;;;;;;;;;;;;;;;;1034178;28;1083;-41
2022/01/16 00:55:45;;;;;;;;;;;;;;;;;;1034540;28;1127;-41
2022/01/16 00:56:16;;;;;;;;;;;;;;;;;;1033714;28;1099;-42
2022/01/16 00:56:46;;;;;;;;;;;;;;;;;;1033262;28;1201;-41
2022/01/16 00:57:16;;;;;;;;;;;;;;;;;;1034086;28;1162;-41
2022/01/16 00:57:47;;;;;;;;;;;;;;;;;;1034329;28;1091;-41
2022/01/16 00:58:17;;;;;;;;;;;;;;;;;;1034078;28;1084;-41
2022/01/16 00:58:47;;;;;;;;;;;;;;;;;;1033197;28;1095;-41
2022/01/16 00:59:18;;;;;;;;;;;;;;;;;;1033836;28;1233;-41
2022/01/16 00:59:48;;;;;;;;;;;;;;;;;;1034578;28;1202;-41
2022/01/16 01:00:19;;;;;;;;;;;;;;;;;;1033992;28;1170;-42
2022/01/16 01:00:49;;;;;;;;;;;;;;;;;;1033271;28;1225;-41
2022/01/16 01:01:19;;;;;;;;;;;;;;;;;;1033537;28;1797;-41
2022/01/16 01:01:50;;;;;;;;;;;;;;;;;;1031868;28;1040;-41
2022/01/16 01:02:21;;;;;;;;;;;;;;;;;;1032080;28;1024;-41
2022/01/16 01:02:54;;;;;;;;;;;;;;;;;;1034565;28;1084;-41
2022/01/16 01:03:25;;;;;;;;;;;;;;;;;;1034280;28;1190;-41
2022/01/16 01:03:57;;;;;;;;;;;;;;;;;;1033302;28;1797;-41
2022/01/16 01:04:27;;;;;;;;;;;;;;;;;;1033113;28;1099;-42
2022/01/16 01:04:58;;;;;;;;;;;;;;;;;;1034518;28;1119;-41
2022/01/16 01:05:28;;;;;;;;;;;;;;;;;;1034402;28;1139;-41
2022/01/16 01:05:59;;;;;;;;;;;;;;;;;;1033732;28;1219;-41
2022/01/16 01:06:29;;;;;;;;;;;;;;;;;;1033184;28;1138;-41
2022/01/16 01:06:59;;;;;;;;;;;;;;;;;;1034211;28;1051;-41
2022/01/16 01:07:31;;;;;;;;;;;;;;;;;;1034516;28;1253;-41
2022/01/16 01:08:02;;;;;;;;;;;;;;;;;;1033799;28;1323;-41
2022/01/16 01:08:33;;;;;;;;;;;;;;;;;;1033222;28;1147;-41
2022/01/16 01:09:03;;;;;;;;;;;;;;;;;;1033622;28;1139;-41
2022/01/16 01:09:33;;;;;;;;;;;;;;;;;;1031805;28;934;-41
2022/01/16 01:10:04;;;;;;;;;;;;;;;;;;1031998;28;955;-41
2022/01/16 01:10:38;;;;;;;;;;;;;;;;;;1031770;28;829;-41
2022/01/16 01:11:13;;;;;;;;;;;;;;;;;;1031850;28;955;-41
2022/01/16 01:11:45;;;;;;;;;;;;;;;;;;1031960;28;883;-41
2022/01/16 01:12:28;;;;;;;;;;;;;;;;;;1031444;28;822;-40
2022/01/16 01:13:57;;;;;;;;;;;;;;;;;;1031478;28;1960;-41
2022/01/16 01:14:40;;;;;;;;;;;;;;;;;;1031875;28;934;-41
2022/01/16 01:15:10;;;;;;;;;;;;;;;;;;1031924;28;922;-41
2022/01/16 01:15:47;;;;;;;;;;;;;;;;;;1031841;28;1284;-41
2022/01/16 01:16:18;;;;;;;;;;;;;;;;;;1031907;28;906;-41
2022/01/16 01:16:53;;;;;;;;;;;;;;;;;;1031962;28;993;-41
2022/01/16 01:17:24;;;;;;;;;;;;;;;;;;1031674;28;848;-41
2022/01/16 01:17:55;;;;;;;;;;;;;;;;;;1032037;28;819;-40
2022/01/16 01:18:25;;;;;;;;;;;;;;;;;;1031860;28;1306;-41
2022/01/16 01:18:55;;;;;;;;;;;;;;;;;;1031986;28;914;-41
2022/01/16 01:19:33;;;;;;;;;;;;;;;;;;1031845;28;918;-41
2022/01/16 01:20:05;;;;;;;;;;;;;;;;;;1031829;28;887;-41
2022/01/16 01:20:36;;;;;;;;;;;;;;;;;;1031797;28;934;-41
2022/01/16 01:21:16;;;;;;;;;;;;;;;;;;1031943;28;854;-42
2022/01/16 01:21:46;;;;;;;;;;;;;;;;;;1031857;28;769;-41
2022/01/16 01:22:17;;;;;;;;;;;;;;;;;;1031960;28;886;-41
2022/01/16 01:22:49;;;;;;;;;;;;;;;;;;1031859;28;914;-41
2022/01/16 01:23:19;;;;;;;;;;;;;;;;;;1031962;28;958;-41
2022/01/16 01:23:49;;;;;;;;;;;;;;;;;;1031835;28;827;-41
2022/01/16 01:24:20;;;;;;;;;;;;;;;;;;1031901;28;986;-41
2022/01/16 01:24:50;;;;;;;;;;;;;;;;;;1032050;28;942;-41
2022/01/16 01:25:22;;;;;;;;;;;;;;;;;;1031748;28;866;-41
2022/01/16 01:25:52;;;;;;;;;;;;;;;;;;1033007;28;1079;-41
2022/01/16 01:26:33;;;;;;;;;;;;;;;;;;1035832;28;855;-41
2022/01/16 01:27:19;;;;;;;;;;;;;;;;;;1035992;28;977;-40
2022/01/16 01:27:49;;;;;;;;;;;;;;;;;;1035761;28;886;-41
2022/01/16 01:28:20;;;;;;;;;;;;;;;;;;1035915;28;929;-41
2022/01/16 01:28:50;;;;;;;;;;;;;;;;;;1036086;28;874;-41
2022/01/16 01:29:21;;;;;;;;;;;;;;;;;;1035844;28;863;-40
2022/01/16 01:30:01;;;;;;;;;;;;;;;;;;1036043;28;870;-41
2022/01/16 01:30:32;;;;;;;;;;;;;;;;;;1035589;28;962;-41
2022/01/16 01:31:02;;;;;;;;;;;;;;;;;;1036027;28;886;-41
2022/01/16 01:31:32;;;;;;;;;;;;;;;;;;1035896;28;957;-40
2022/01/16 01:32:03;;;;;;;;;;;;;;;;;;1035932;28;867;-41
2022/01/16 01:32:36;;;;;;;;;;;;;;;;;;1035964;28;890;-40
2022/01/16 01:33:06;;;;;;;;;;;;;;;;;;1035978;28;954;-41
2022/01/16 01:33:38;;;;;;;;;;;;;;;;;;1035808;28;1914;-41
2022/01/16 01:34:08;;;;;;;;;;;;;;;;;;1036012;28;662;-41
2022/01/16 01:34:38;;;;;;;;;;;;;;;;;;1035773;28;830;-41
2022/01/16 01:35:10;;;;;;;;;;;;;;;;;;1036092;28;871;-41
2022/01/16 01:35:41;;;;;;;;;;;;;;;;;;1035739;28;855;-41
2022/01/16 01:36:11;;;;;;;;;;;;;;;;;;1036060;28;878;-41
2022/01/16 01:36:42;;;;;;;;;;;;;;;;;;1035856;28;831;-41
2022/01/16 01:37:12;;;;;;;;;;;;;;;;;;1035975;28;941;-39
2022/01/16 01:37:42;;;;;;;;;;;;;;;;;;1035783;28;938;-41
2022/01/16 01:38:17;;;;;;;;;;;;;;;;;;1036074;28;879;-41
2022/01/16 01:38:47;;;;;;;;;;;;;;;;;;1035719;28;815;-41
2022/01/16 01:39:19;;;;;;;;;;;;;;;;;;1036094;28;851;-41
2022/01/16 01:39:49;;;;;;;;;;;;;;;;;;1035753;28;842;-41
2022/01/16 01:40:24;;;;;;;;;;;;;;;;;;1038268;28;1225;-41
2022/01/16 01:40:54;;;;;;;;;;;;;;;;;;1039943;28;961;-42
2022/01/16 01:41:28;;;;;;;;;;;;;;;;;;1039907;28;894;-42
2022/01/16 01:42:07;;;;;;;;;;;;;;;;;;1040048;28;992;-41
2022/01/16 01:42:48;;;;;;;;;;;;;;;;;;1039855;28;1152;-41
2022/01/16 01:51:24;;;;;;;;;;;;;;;;;;1035884;28;890;-41
2022/01/16 01:51:54;;;;;;;;;;;;;;;;;;1035820;28;871;-42
2022/01/16 01:52:25;;;;;;;;;;;;;;;;;;1035827;28;957;-42
2022/01/16 01:52:55;;;;;;;;;;;;;;;;;;1035970;28;875;-41
2022/01/16 01:53:26;;;;;;;;;;;;;;;;;;1035560;28;2004;-42
2022/01/16 01:53:57;;;;;;;;;;;;;;;;;;1036007;28;961;-41
2022/01/16 01:54:27;;;;;;;;;;;;;;;;;;1035758;28;799;-41
2022/01/16 01:54:58;;;;;;;;;;;;;;;;;;1035975;28;815;-41
2022/01/16 01:55:28;;;;;;;;;;;;;;;;;;1035704;28;948;-41
2022/01/16 01:55:58;;;;;;;;;;;;;;;;;;1035920;28;894;-41
2022/01/16 01:56:29;;;;;;;;;;;;;;;;;;1035816;28;1001;-41
2022/01/16 01:56:59;;;;;;;;;;;;;;;;;;1035828;28;930;-41
2022/01/16 01:57:31;;;;;;;;;;;;;;;;;;1035646;28;907;-42
2022/01/16 01:58:01;;;;;;;;;;;;;;;;;;1035921;28;887;-41
2022/01/16 01:58:34;;;;;;;;;;;;;;;;;;1035808;28;874;-42
2022/01/16 01:59:05;;;;;;;;;;;;;;;;;;1035795;28;935;-42
2022/01/16 01:59:39;;;;;;;;;;;;;;;;;;1035701;28;855;-41
2022/01/16 02:00:17;;;;;;;;;;;;;;;;;;1035884;28;950;-41
2022/01/16 02:00:47;;;;;;;;;;;;;;;;;;1035782;28;1048;-41
2022/01/16 02:01:17;;;;;;;;;;;;;;;;;;1035779;28;882;-41
2022/01/16 02:01:48;;;;;;;;;;;;;;;;;;1035713;28;1073;-41
2022/01/16 02:02:18;;;;;;;;;;;;;;;;;;1035461;28;1047;-41
2022/01/16 02:04:11;;;;;;;;;;;;;;;;;;1035689;28;946;-41
2022/01/16 02:04:41;;;;;;;;;;;;;;;;;;1035924;28;925;-41
2022/01/16 02:05:11;;;;;;;;;;;;;;;;;;1035683;28;922;-41
2022/01/16 02:05:42;;;;;;;;;;;;;;;;;;1035825;28;895;-41
2022/01/16 02:06:15;;;;;;;;;;;;;;;;;;1035773;28;914;-41
2022/01/16 02:06:45;;;;;;;;;;;;;;;;;;1035867;28;918;-41
2022/01/16 02:07:16;;;;;;;;;;;;;;;;;;1035808;28;894;-41
2022/01/16 02:07:46;;;;;;;;;;;;;;;;;;1035708;28;854;-41
2022/01/16 02:08:17;;;;;;;;;;;;;;;;;;1035723;28;946;-41
2022/01/16 02:08:51;;;;;;;;;;;;;;;;;;1035772;28;1005;-41
2022/01/16 02:09:22;;;;;;;;;;;;;;;;;;1035814;28;961;-41
2022/01/16 02:09:52;;;;;;;;;;;;;;;;;;1035846;28;949;-41
2022/01/16 02:10:23;;;;;;;;;;;;;;;;;;1035544;28;954;-41
2022/01/16 02:10:56;;;;;;;;;;;;;;;;;;1035753;28;878;-41
2022/01/16 02:11:29;;;;;;;;;;;;;;;;;;1035725;28;743;-41
2022/01/16 02:11:59;;;;;;;;;;;;;;;;;;1035713;28;896;-41
2022/01/16 02:12:31;;;;;;;;;;;;;;;;;;1035732;28;815;-41
2022/01/16 02:13:05;;;;;;;;;;;;;;;;;;1035604;28;1354;-41
2022/01/16 02:13:46;;;;;;;;;;;;;;;;;;1035699;28;1923;-41
2022/01/16 02:14:51;;;;;;;;;;;;;;;;;;1035633;28;834;-41
2022/01/16 02:27:54;;;;;;;;;;;;;;;;;;1035682;28;1209;-40
2022/01/16 02:28:13;;;;;;;;;;;;;;;;;;1031490;28;958;-41
2022/01/16 02:29:07;;;;;;;;;;;;;;;;;;1031772;28;863;-39
2022/01/16 02:31:21;;;;;;;;;;;;;;;;;;1027303;28;907;-39
2022/01/16 02:32:01;;;;;;;;;;;;;;;;;;1029091;28;820;-41
2022/01/16 02:35:00;;;;;;;;;;;;;;;;;;1031644;28;1104;-41
2022/01/16 02:35:31;;;;;;;;;;;;;;;;;;1031531;28;954;-41
2022/01/16 02:36:01;;;;;;;;;;;;;;;;;;1031656;28;879;-42
2022/01/16 02:36:33;;;;;;;;;;;;;;;;;;1031755;28;882;-41
2022/01/16 02:37:08;;;;;;;;;;;;;;;;;;1031576;28;970;-41
2022/01/16 02:37:38;;;;;;;;;;;;;;;;;;1031510;28;921;-42
2022/01/16 02:38:09;;;;;;;;;;;;;;;;;;1031670;28;843;-41
2022/01/16 02:38:40;;;;;;;;;;;;;;;;;;1031563;28;958;-41
2022/01/16 02:39:13;;;;;;;;;;;;;;;;;;1031728;28;910;-41
2022/01/16 02:39:48;;;;;;;;;;;;;;;;;;1031563;28;858;-40
2022/01/16 02:40:24;;;;;;;;;;;;;;;;;;1031510;28;807;-41
2022/01/16 02:41:02;;;;;;;;;;;;;;;;;;1031584;28;899;-42
2022/01/16 02:41:33;;;;;;;;;;;;;;;;;;1031648;28;953;-42
2022/01/16 02:42:04;;;;;;;;;;;;;;;;;;1031181;28;882;-42
2022/01/16 02:42:39;;;;;;;;;;;;;;;;;;1031624;28;1127;-41
2022/01/16 02:43:09;;;;;;;;;;;;;;;;;;1031550;28;1013;-42
2022/01/16 02:43:46;;;;;;;;;;;;;;;;;;1031345;28;945;-42
2022/01/16 02:44:18;;;;;;;;;;;;;;;;;;1031639;28;902;-41
2022/01/16 02:45:00;;;;;;;;;;;;;;;;;;1031661;28;987;-41
2022/01/16 02:45:34;;;;;;;;;;;;;;;;;;1031759;28;874;-41
2022/01/16 02:46:47;;;;;;;;;;;;;;;;;;1031721;28;985;-41
2022/01/16 02:47:19;;;;;;;;;;;;;;;;;;1031556;28;877;-40
2022/01/16 02:47:49;;;;;;;;;;;;;;;;;;1031462;28;918;-41
2022/01/16 02:48:19;;;;;;;;;;;;;;;;;;1031598;28;865;-40
2022/01/16 02:48:50;;;;;;;;;;;;;;;;;;1031480;28;1164;-41
2022/01/16 02:49:22;;;;;;;;;;;;;;;;;;1031591;28;780;-41
2022/01/16 02:49:53;;;;;;;;;;;;;;;;;;1031625;28;970;-41
2022/01/16 02:50:24;;;;;;;;;;;;;;;;;;1031388;28;1060;-41
2022/01/16 02:50:54;;;;;;;;;;;;;;;;;;1031633;28;883;-41
2022/01/16 02:51:26;;;;;;;;;;;;;;;;;;1031496;28;886;-41
2022/01/16 02:51:59;;;;;;;;;;;;;;;;;;1031574;28;883;-41
2022/01/16 02:52:29;;;;;;;;;;;;;;;;;;1031546;28;964;-42
2022/01/16 02:53:00;;;;;;;;;;;;;;;;;;1031476;28;847;-41
2022/01/16 02:53:30;;;;;;;;;;;;;;;;;;1031506;28;1978;-41
2022/01/16 02:54:01;;;;;;;;;;;;;;;;;;1031488;28;1024;-41
2022/01/16 02:54:35;;;;;;;;;;;;;;;;;;1031573;28;990;-41
2022/01/16 02:55:06;;;;;;;;;;;;;;;;;;1031638;28;839;-41
2022/01/16 02:55:40;;;;;;;;;;;;;;;;;;1031503;28;815;-41
2022/01/16 02:56:11;;;;;;;;;;;;;;;;;;1031613;28;926;-41
2022/01/16 02:56:43;;;;;;;;;;;;;;;;;;1031467;28;922;-42
2022/01/16 02:57:15;;;;;;;;;;;;;;;;;;1031538;28;942;-41
2022/01/16 02:57:45;;;;;;;;;;;;;;;;;;1031480;28;1675;-41
2022/01/16 02:58:15;;;;;;;;;;;;;;;;;;1031385;28;999;-41
2022/01/16 02:58:46;;;;;;;;;;;;;;;;;;1031632;28;938;-42
2022/01/16 02:59:17;;;;;;;;;;;;;;;;;;1031432;28;843;-42
2022/01/16 02:59:55;;;;;;;;;;;;;;;;;;1031683;28;901;-41
2022/01/16 03:00:25;;;;;;;;;;;;;;;;;;1031375;28;945;-41
2022/01/16 03:00:56;;;;;;;;;;;;;;;;;;1031480;28;946;-41
2022/01/16 03:01:26;;;;;;;;;;;;;;;;;;1031461;28;938;-41
2022/01/16 03:01:57;;;;;;;;;;;;;;;;;;1031493;28;887;-42
2022/01/16 03:02:27;;;;;;;;;;;;;;;;;;1032893;28;1043;-40
2022/01/16 03:02:57;;;;;;;;;;;;;;;;;;1035577;28;1609;-41
2022/01/16 03:03:28;;;;;;;;;;;;;;;;;;1035466;28;1323;-41
2022/01/16 03:03:58;;;;;;;;;;;;;;;;;;1035591;28;799;-41
2022/01/16 03:04:29;;;;;;;;;;;;;;;;;;1035474;28;1609;-42
2022/01/16 03:05:00;;;;;;;;;;;;;;;;;;1035598;28;842;-41
2022/01/16 03:05:33;;;;;;;;;;;;;;;;;;1035555;28;871;-41
2022/01/16 03:06:03;;;;;;;;;;;;;;;;;;1035519;28;982;-42
2022/01/16 03:06:33;;;;;;;;;;;;;;;;;;1035531;28;1005;-42
2022/01/16 03:07:04;;;;;;;;;;;;;;;;;;1035632;28;1017;-41
2022/01/16 03:07:34;;;;;;;;;;;;;;;;;;1035361;28;954;-42
2022/01/16 03:08:06;;;;;;;;;;;;;;;;;;1035745;28;910;-42
2022/01/16 03:08:36;;;;;;;;;;;;;;;;;;1035426;28;843;-41
2022/01/16 03:09:07;;;;;;;;;;;;;;;;;;1035619;28;858;-41
2022/01/16 03:11:24;;;;;;;;;;;;;;;;;;1035322;28;843;-41
2022/01/16 03:11:55;;;;;;;;;;;;;;;;;;1035670;28;929;-41
2022/01/16 03:12:26;;;;;;;;;;;;;;;;;;1035507;28;926;-41
2022/01/16 03:12:56;;;;;;;;;;;;;;;;;;1035581;28;950;-41
2022/01/16 03:13:31;;;;;;;;;;;;;;;;;;1035396;28;1918;-41
2022/01/16 03:14:09;;;;;;;;;;;;;;;;;;1035615;28;827;-41
2022/01/16 03:14:39;;;;;;;;;;;;;;;;;;1035497;28;1026;-41
2022/01/16 03:15:09;;;;;;;;;;;;;;;;;;1035471;28;1194;-41
2022/01/16 03:15:40;;;;;;;;;;;;;;;;;;1035524;28;839;-41
2022/01/16 03:16:10;;;;;;;;;;;;;;;;;;1035595;28;907;-41
2022/01/16 03:16:44;;;;;;;;;;;;;;;;;;1035351;28;1689;-41
2022/01/16 03:17:23;;;;;;;;;;;;;;;;;;1035434;28;992;-41
2022/01/16 03:21:55;;;;;;;;;;;;;;;;;;1035433;28;916;-41
2022/01/16 03:22:25;;;;;;;;;;;;;;;;;;1035616;28;907;-41
2022/01/16 03:22:55;;;;;;;;;;;;;;;;;;1035524;28;989;-41
2022/01/16 03:23:26;;;;;;;;;;;;;;;;;;1035503;28;950;-41
2022/01/16 03:23:56;;;;;;;;;;;;;;;;;;1035604;28;800;-41
2022/01/16 03:24:28;;;;;;;;;;;;;;;;;;1035380;28;949;-41
2022/01/16 03:24:58;;;;;;;;;;;;;;;;;;1035670;28;954;-41
2022/01/16 03:25:28;;;;;;;;;;;;;;;;;;1035408;28;765;-41
2022/01/16 03:25:59;;;;;;;;;;;;;;;;;;1035273;28;1079;-41
2022/01/16 03:26:30;;;;;;;;;;;;;;;;;;1035577;28;858;-41
2022/01/16 03:27:16;;;;;;;;;;;;;;;;;;1035541;28;881;-40
2022/01/16 03:27:47;;;;;;;;;;;;;;;;;;1035446;28;950;-41
2022/01/16 03:28:18;;;;;;;;;;;;;;;;;;1035428;28;890;-41
2022/01/16 03:28:48;;;;;;;;;;;;;;;;;;1035543;28;985;-41
2022/01/16 03:29:19;;;;;;;;;;;;;;;;;;1035509;28;819;-41
2022/01/16 03:29:51;;;;;;;;;;;;;;;;;;1035374;28;891;-41
2022/01/16 03:30:21;;;;;;;;;;;;;;;;;;1035372;28;791;-41
2022/01/16 03:30:52;;;;;;;;;;;;;;;;;;1035629;28;906;-40
2022/01/16 03:31:23;;;;;;;;;;;;;;;;;;1035536;28;923;-41
2022/01/16 03:31:54;;;;;;;;;;;;;;;;;;1035490;28;830;-41
2022/01/16 03:32:24;;;;;;;;;;;;;;;;;;1035342;28;923;-41
2022/01/16 03:32:55;;;;;;;;;;;;;;;;;;1035641;28;958;-41
2022/01/16 03:33:25;;;;;;;;;;;;;;;;;;1035390;28;1910;-41
2022/01/16 03:33:55;;;;;;;;;;;;;;;;;;1035409;28;894;-41
2022/01/16 03:34:26;;;;;;;;;;;;;;;;;;1035476;28;934;-41
2022/01/16 03:34:56;;;;;;;;;;;;;;;;;;1035373;28;791;-41
2022/01/16 03:35:26;;;;;;;;;;;;;;;;;;1035489;28;965;-40
2022/01/16 03:35:57;;;;;;;;;;;;;;;;;;1035500;28;855;-41
2022/01/16 03:36:27;;;;;;;;;;;;;;;;;;1035399;28;878;-40
2022/01/16 03:36:58;;;;;;;;;;;;;;;;;;1035576;28;906;-41
2022/01/16 03:37:28;;;;;;;;;;;;;;;;;;1035320;28;946;-41
2022/01/16 03:37:59;;;;;;;;;;;;;;;;;;1035493;28;815;-41
2022/01/16 03:38:30;;;;;;;;;;;;;;;;;;1035503;28;863;-41
2022/01/16 03:39:01;;;;;;;;;;;;;;;;;;1035452;28;862;-41
2022/01/16 03:39:31;;;;;;;;;;;;;;;;;;1035455;28;957;-41
2022/01/16 03:40:04;;;;;;;;;;;;;;;;;;1035421;28;779;-41
2022/01/16 03:40:35;;;;;;;;;;;;;;;;;;1035192;28;883;-41
2022/01/16 03:41:05;;;;;;;;;;;;;;;;;;1035614;28;874;-41
2022/01/16 03:41:37;;;;;;;;;;;;;;;;;;1035167;28;1090;-41
2022/01/16 03:42:07;;;;;;;;;;;;;;;;;;1035685;28;937;-41
2022/01/16 03:42:39;;;;;;;;;;;;;;;;;;1035324;28;983;-41
2022/01/16 03:43:13;;;;;;;;;;;;;;;;;;1035536;28;871;-41
2022/01/16 03:43:44;;;;;;;;;;;;;;;;;;1035487;28;969;-41
2022/01/16 03:44:14;;;;;;;;;;;;;;;;;;1035296;28;934;-41
2022/01/16 03:44:45;;;;;;;;;;;;;;;;;;1035441;28;950;-41
2022/01/16 03:45:15;;;;;;;;;;;;;;;;;;1035475;28;910;-42
2022/01/16 03:45:46;;;;;;;;;;;;;;;;;;1035363;28;865;-42
2022/01/16 03:46:17;;;;;;;;;;;;;;;;;;1035563;28;902;-42
2022/01/16 03:46:47;;;;;;;;;;;;;;;;;;1035336;28;954;-41
2022/01/16 03:47:18;;;;;;;;;;;;;;;;;;1035422;28;882;-41
2022/01/16 03:47:48;;;;;;;;;;;;;;;;;;1035358;28;989;-41
2022/01/16 03:48:18;;;;;;;;;;;;;;;;;;1035463;28;930;-42
2022/01/16 03:48:49;;;;;;;;;;;;;;;;;;1033502;28;1208;-42
2022/01/16 03:49:20;;;;;;;;;;;;;;;;;;1027126;28;886;-41
2022/01/16 03:49:51;;;;;;;;;;;;;;;;;;1026985;28;1046;-41
2022/01/16 03:50:21;;;;;;;;;;;;;;;;;;1026988;28;827;-41
2022/01/16 03:50:51;;;;;;;;;;;;;;;;;;1027088;28;875;-41
2022/01/16 03:51:22;;;;;;;;;;;;;;;;;;1031447;28;923;-39
2022/01/16 03:51:53;;;;;;;;;;;;;;;;;;1031278;28;882;-42
2022/01/16 03:52:24;;;;;;;;;;;;;;;;;;1031455;28;950;-41
2022/01/16 03:52:54;;;;;;;;;;;;;;;;;;1031329;28;945;-41
2022/01/16 03:53:24;;;;;;;;;;;;;;;;;;1031113;28;1910;-41
2022/01/16 03:53:55;;;;;;;;;;;;;;;;;;1030878;28;863;-41
2022/01/16 03:54:30;;;;;;;;;;;;;;;;;;1031296;28;772;-41
2022/01/16 03:55:03;;;;;;;;;;;;;;;;;;1031177;28;946;-43
2022/01/16 03:55:34;;;;;;;;;;;;;;;;;;1031317;28;950;-42
2022/01/16 03:56:04;;;;;;;;;;;;;;;;;;1031393;28;907;-41
2022/01/16 03:56:35;;;;;;;;;;;;;;;;;;1031362;28;933;-41
2022/01/16 03:57:05;;;;;;;;;;;;;;;;;;1031471;28;949;-41
2022/01/16 03:57:36;;;;;;;;;;;;;;;;;;1031131;28;954;-41
2022/01/16 03:58:06;;;;;;;;;;;;;;;;;;1031514;28;895;-41
2022/01/16 03:58:37;;;;;;;;;;;;;;;;;;1031356;28;946;-41
2022/01/16 03:59:07;;;;;;;;;;;;;;;;;;1031396;28;890;-41
2022/01/16 03:59:38;;;;;;;;;;;;;;;;;;1031214;28;1446;-41
2022/01/16 04:00:08;;;;;;;;;;;;;;;;;;1031373;28;909;-41
2022/01/16 04:00:39;;;;;;;;;;;;;;;;;;1031188;28;985;-41
2022/01/16 04:01:09;;;;;;;;;;;;;;;;;;1031565;28;858;-41
2022/01/16 04:01:39;;;;;;;;;;;;;;;;;;1031129;28;930;-42
2022/01/16 04:02:10;;;;;;;;;;;;;;;;;;1030895;28;1055;-41
2022/01/16 04:02:40;;;;;;;;;;;;;;;;;;1027240;28;1695;-41
2022/01/16 04:03:11;;;;;;;;;;;;;;;;;;1027324;28;982;-41
2022/01/16 04:03:42;;;;;;;;;;;;;;;;;;1027256;28;1017;-42
2022/01/16 04:04:12;;;;;;;;;;;;;;;;;;1027245;28;807;-41
2022/01/16 04:04:42;;;;;;;;;;;;;;;;;;1027488;28;891;-41
2022/01/16 04:05:13;;;;;;;;;;;;;;;;;;1027314;28;788;-41
2022/01/16 04:05:43;;;;;;;;;;;;;;;;;;1027259;28;828;-41
2022/01/16 04:06:13;;;;;;;;;;;;;;;;;;1027394;28;929;-41
2022/01/16 04:06:44;;;;;;;;;;;;;;;;;;1027399;28;859;-41
2022/01/16 04:07:21;;;;;;;;;;;;;;;;;;1027378;28;898;-41
2022/01/16 04:07:51;;;;;;;;;;;;;;;;;;1027296;28;807;-41
2022/01/16 04:08:21;;;;;;;;;;;;;;;;;;1027280;28;894;-41
2022/01/16 04:08:53;;;;;;;;;;;;;;;;;;1027408;28;962;-41
2022/01/16 04:09:23;;;;;;;;;;;;;;;;;;1026909;28;815;-40
2022/01/16 04:09:53;;;;;;;;;;;;;;;;;;1026928;28;926;-39
2022/01/16 04:10:24;;;;;;;;;;;;;;;;;;1027024;28;875;-41
2022/01/16 04:10:54;;;;;;;;;;;;;;;;;;1026897;28;792;-41
2022/01/16 04:11:25;;;;;;;;;;;;;;;;;;1027381;28;926;-41
2022/01/16 04:11:57;;;;;;;;;;;;;;;;;;1027242;28;906;-40
2022/01/16 04:12:27;;;;;;;;;;;;;;;;;;1027396;28;973;-41
2022/01/16 04:12:58;;;;;;;;;;;;;;;;;;1027340;28;946;-41
2022/01/16 04:13:31;;;;;;;;;;;;;;;;;;1027217;28;1983;-42
2022/01/16 04:14:08;;;;;;;;;;;;;;;;;;1028753;28;1112;-41
2022/01/16 04:15:48;;;;;;;;;;;;;;;;;;1035402;28;843;-41
2022/01/16 04:16:20;;;;;;;;;;;;;;;;;;1035269;28;807;-41
2022/01/16 04:16:51;;;;;;;;;;;;;;;;;;1035513;28;901;-41
2022/01/16 04:17:23;;;;;;;;;;;;;;;;;;1035260;28;799;-40
2022/01/16 04:17:53;;;;;;;;;;;;;;;;;;1035399;28;518;-41
2022/01/16 04:18:24;;;;;;;;;;;;;;;;;;1035402;28;949;-41
2022/01/16 04:18:54;;;;;;;;;;;;;;;;;;1035327;28;1062;-39
2022/01/16 04:19:24;;;;;;;;;;;;;;;;;;1035458;28;835;-41
2022/01/16 04:19:55;;;;;;;;;;;;;;;;;;1035327;28;807;-41